AirNav   Get $300 off a Bose A20
 
 836 users online  

MD1 Massey Aerodrome
Massey, Maryland, USA

GOING TO MASSEY?


FAA INFORMATION EFFECTIVE 23 MAY 2019

Location

FAA Identifier: MD1
Lat/Long: 39-17-57.7000N / 075-47-57.8000W
39-17.961667N / 075-47.963333W
39.2993611 / -75.7993889
(estimated)
Elevation: 73 ft. / 22 m (estimated)
Variation: 12W (2000)
From city: 2 miles E of MASSEY, MD
Time zone: UTC -4 (UTC -5 during Standard Time)
Zip code: 21650

Airport Operations

Airport use: Open to the public
Activation date: 01/2002
Control tower: no
ARTCC: NEW YORK CENTER
FSS: LEESBURG FLIGHT SERVICE STATION
NOTAMs facility: DCA (NOTAM-D service available)
Attendance: 1000-1700
Wind indicator: yes
Segmented circle: no

Airport Communications

CTAF: 122.9
WX AWOS-3 at 33N (10 nm SE): 120.125 (302-735-9754)
WX AWOS-3 at EVY (14 nm N): 132.325 (302-378-2063)

Nearby radio navigation aids

VOR radial/distance  VOR name  Freq  Var
ENOr296/13.8SMYRNA VORTAC111.4009W
DQOr211/24.4DUPONT VORTAC114.0010W
OODr239/30.6WOODSTOWN VORTAC112.8010W
MXEr198/37.6MODENA VORTAC113.2009W

 
NDB name  Hdg/Dist  Freq  Var  ID
RAINBOW268/31.636311WRNB .-. -. -...

Airport Services

Parking: tiedowns

Runway Information

Runway 2/20

Dimensions: 3000 x 100 ft. / 914 x 30 m
Surface: turf, in good condition
Runway edge markings: RY 20 DSPLCD THLD MARKED WITH 3 ORANGE TRAFFIC CONES ON BOTH SIDES.
RUNWAY 2  RUNWAY 20
Latitude: 39-17.721833N39-18.200500N
Longitude: 075-48.042333W075-47.883333W
Traffic pattern: leftleft
Displaced threshold: no120 ft.
Markings: numbers only, in good conditionnumbers only, in good condition
Obstructions: 16 ft. trees, 372 ft. from runway, 36 ft. right of centerline, 23:1 slope to clear20 ft. trees, 249 ft. from runway, 12:1 slope to clear
APCH RATIO 20:1 TO DSPL THLD

Airport Ownership and Management from official FAA records

Ownership: Privately-owned
Owner: MASSEY AERO LLC
33541 MARYLAND LINE RD
MASSEY, MD 21650
Phone 410-928-5270
Manager: JOHN WILLIAMSON
33541 MARYLAND LINE RD
MASSEY, MD 21650
Phone 410-928-5270

Airport Operational Statistics

Aircraft based on the field: 35
Single engine airplanes: 24
Gliders airplanes: 11
    
Aircraft operations: avg 99/week *
70% local general aviation
23% transient general aviation
7% military
* for 12-month period ending 10 October 2018

Additional Remarks

GLIDERS,HANG-GLIDERS,POWERED PARACHUTES, ULTRALIGHT ACTIVITY, ON AND INVOF. AIRPORT
RY THLDS AND SIDES MARKED WITH ORANGE TRAFFIC CONES.

Instrument Procedures

There are no published instrument procedures at MD1.

Some nearby airports with instrument procedures:

33N - Delaware Airpark (10 nm SE)
KEVY - Summit Airport (14 nm N)
58M - Claremont Airport (17 nm N)
KDOV - Dover Air Force Base (19 nm SE)
KAPG - Phillips Army Airfield (20 nm NW)
KRJD - Ridgely Airpark (20 nm S)
 
Loc | Ops | Rwys | IFR | FBO | Links
Com | Nav | Svcs | Stats | Notes
Area around MD1 (Massey Aerodrome)
 
Road maps at: MapQuest Bing Google
 
Aerial photo
WARNING: Photo may not be current or correct
Aerial photo of MD1 (Massey Aerodrome)
Photo taken 16-Sep-2016
looking north.

Do you have a better or more recent aerial photo of Massey Aerodrome that you would like to share? If so, please send us your photo.

 
Sectional chart

 
Airport distance calculator
Flying to Massey Aerodrome? Find the distance to fly.

From to MD1

Sunrise and sunset
Times for 25-May-2019
 Local
(UTC-4)
 Zulu
(UTC)
Morning civil twilight05:1209:12
Sunrise05:4309:43
Sunset20:1700:17
Evening civil twilight20:4800:48

Current date and time
Zulu (UTC)  26-May-2019 02:08:36
Local (UTC-4)  25-May-2019 22:08:36
 
METAR
KDOV 
19nm SE 
260156Z 15010KT 10SM SCT110 18/14 A3006 RMK AO2A SLP182 T01820143 $
KILG 
24nm NE 
260151Z 16012KT 10SM BKN120 18/15 A3008 RMK AO2 SLP184 T01830150 $
KMTN 
29nm W 
260145Z 16009KT 10SM SCT200 22/18 A3007
KW29 
31nm SW 
260200Z AUTO 17012G17KT 10SM SCT120 21/18 A3006 RMK AO2 LTG DSNT SW AND NW
TAF
KDOV 
19nm SE 
260000Z 2600/2706 12012G18KT 9999 SCT030 BKN100 QNH2997INS BECMG 2601/2602 22009KT 8000 -SHRA SCT015 BKN030 QNH2997INS BECMG 2607/2608 27009KT 9999 NSW BKN020 BKN080 QNH2995INS TEMPO 2620/2624 32015G25KT 8000 -TSRA BKN020CB TX31/2616Z TN17/2610Z
NOTAMs
Click for the latest NOTAMs
NOTAMs are issued by the DoD/FAA and will open in a separate window not controlled by AirNav.

 

 
 

Would you like to see your business listed on this page?

 If your business provides an interesting product or service to pilots, flight crews, aircraft, or users of the Massey Aerodrome, you should consider listing it here.  To start the listing process, click on the button below
 
Add a business
 

Other Pages about Massey Aerodrome

Update a link
 
Copyright © AirNav, LLC. All rights reserved. Privacy Policy  Contact